Time;durP1;ratioP1;P1;durP2;ratioP2;P2;SDS_P1;SDS_P2;PMS_P1;PMS_P2;Temp;Humidity;BMP_temperature;BMP_pressure;BME280_temperature;BME280_humidity;BME280_pressure;Samples;Min_cycle;Max_cycle;Signal;HPM_P1;HPM_P2
2021/09/04 00:01:12;;;;;;;14.05;5.45;;;;;;;;;;6184490;23;20175;-91
2021/09/04 00:04:18;;;;;;;12.52;5.22;;;;;;;;;;6185403;23;20219;-92
2021/09/04 00:07:23;;;;;;;10.27;5.63;;;;;;;;;;6172078;23;20227;-90
2021/09/04 00:10:32;;;;;;;13.93;6.00;;;;;;;;;;6172701;23;20176;-92
2021/09/04 00:13:39;;;;;;;10.60;5.80;;;;;;;;;;6171502;23;20184;-92
2021/09/04 00:16:45;;;;;;;12.00;5.55;;;;;;;;;;6171868;23;20171;-91
2021/09/04 00:19:50;;;;;;;11.57;5.90;;;;;;;;;;6172880;23;20168;-90
2021/09/04 00:22:55;;;;;;;14.45;5.80;;;;;;;;;;6173332;23;20192;-91
2021/09/04 00:26:03;;;;;;;10.48;5.68;;;;;;;;;;6172782;23;20196;-90
2021/09/04 00:29:08;;;;;;;12.57;5.82;;;;;;;;;;6171342;23;20164;-92
2021/09/04 00:32:14;;;;;;;10.18;5.68;;;;;;;;;;6170607;23;20163;-91
2021/09/04 00:35:19;;;;;;;9.45;5.20;;;;;;;;;;6171487;23;20249;-91
2021/09/04 00:38:24;;;;;;;10.43;5.40;;;;;;;;;;6170249;23;20173;-92
2021/09/04 00:41:34;;;;;;;13.38;5.45;;;;;;;;;;6171786;23;20181;-92
2021/09/04 00:44:39;;;;;;;13.05;5.30;;;;;;;;;;6170773;23;20164;-92
2021/09/04 00:48:02;;;;;;;13.20;5.97;;;;;;;;;;6169945;23;20196;-91
2021/09/04 00:51:08;;;;;;;13.63;6.15;;;;;;;;;;6152594;23;20220;-89
2021/09/04 00:54:13;;;;;;;15.30;5.85;;;;;;;;;;6169665;23;20168;-90
2021/09/04 00:57:19;;;;;;;13.23;5.90;;;;;;;;;;6171067;23;20193;-93
2021/09/04 01:00:26;;;;;;;15.25;7.25;;;;;;;;;;6170828;23;20184;-91
2021/09/04 01:03:33;;;;;;;15.23;6.40;;;;;;;;;;6172540;23;20164;-92
2021/09/04 01:06:38;;;;;;;15.55;6.80;;;;;;;;;;6170605;23;20208;-92
2021/09/04 01:09:44;;;;;;;12.70;6.88;;;;;;;;;;6170701;23;20176;-91
2021/09/04 01:12:52;;;;;;;13.57;6.88;;;;;;;;;;6170467;23;20197;-91
2021/09/04 01:15:57;;;;;;;18.48;6.63;;;;;;;;;;6172035;23;20173;-91
2021/09/04 01:19:02;;;;;;;15.93;7.07;;;;;;;;;;6171818;23;20171;-92
2021/09/04 01:22:07;;;;;;;18.17;6.90;;;;;;;;;;6171680;23;20181;-92
2021/09/04 01:25:16;;;;;;;14.02;7.03;;;;;;;;;;6171673;23;20172;-90
2021/09/04 01:28:23;;;;;;;14.75;6.57;;;;;;;;;;6172563;23;20189;-93
2021/09/04 01:31:29;;;;;;;17.45;7.32;;;;;;;;;;6172521;23;20176;-91
2021/09/04 01:34:34;;;;;;;13.00;6.45;;;;;;;;;;6172436;23;20189;-91
2021/09/04 01:37:40;;;;;;;13.43;6.75;;;;;;;;;;6171964;23;20914;-92
2021/09/04 01:40:45;;;;;;;17.35;7.63;;;;;;;;;;6171138;23;20268;-90
2021/09/04 01:43:53;;;;;;;14.13;7.68;;;;;;;;;;6172118;23;20156;-91
2021/09/04 01:46:58;;;;;;;16.20;8.13;;;;;;;;;;6171523;23;20195;-91
2021/09/04 01:50:04;;;;;;;18.98;8.15;;;;;;;;;;6171785;23;20172;-91
2021/09/04 01:53:09;;;;;;;14.23;7.35;;;;;;;;;;6170508;23;20168;-91
2021/09/04 01:56:14;;;;;;;14.63;7.53;;;;;;;;;;6170634;23;20222;-91
2021/09/04 01:59:21;;;;;;;15.93;7.35;;;;;;;;;;6171825;23;20189;-93
2021/09/04 02:02:26;;;;;;;17.17;7.18;;;;;;;;;;6171897;23;20180;-90
2021/09/04 02:05:31;;;;;;;15.68;7.78;;;;;;;;;;6172061;23;20176;-92
2021/09/04 02:08:37;;;;;;;20.75;7.85;;;;;;;;;;6172072;23;20172;-92
2021/09/04 02:11:42;;;;;;;13.05;7.53;;;;;;;;;;6171896;23;20172;-90
2021/09/04 02:14:49;;;;;;;15.40;7.57;;;;;;;;;;6171169;23;20172;-92
2021/09/04 02:17:54;;;;;;;14.85;7.38;;;;;;;;;;6172361;23;20180;-91
2021/09/04 02:21:00;;;;;;;12.88;7.13;;;;;;;;;;6172079;23;20169;-90
2021/09/04 02:24:06;;;;;;;31.63;7.78;;;;;;;;;;6172454;23;20506;-90
2021/09/04 02:27:12;;;;;;;19.48;7.65;;;;;;;;;;6171148;23;20195;-90
2021/09/04 02:30:20;;;;;;;12.50;6.97;;;;;;;;;;6171493;23;20176;-91
2021/09/04 02:33:26;;;;;;;20.95;8.50;;;;;;;;;;6171276;23;20192;-93
2021/09/04 02:36:34;;;;;;;17.45;7.65;;;;;;;;;;6171237;23;20304;-92
2021/09/04 02:39:39;;;;;;;14.20;7.35;;;;;;;;;;6169903;23;20172;-93
2021/09/04 02:42:45;;;;;;;16.83;8.02;;;;;;;;;;6170974;23;20148;-91
2021/09/04 02:45:54;;;;;;;16.67;8.20;;;;;;;;;;6170811;23;20213;-91
2021/09/04 02:48:59;;;;;;;16.25;7.90;;;;;;;;;;6170667;23;20152;-92
2021/09/04 02:52:04;;;;;;;17.42;7.57;;;;;;;;;;6171284;23;20223;-93
2021/09/04 02:55:09;;;;;;;19.48;7.72;;;;;;;;;;6170774;23;20509;-90
2021/09/04 02:58:15;;;;;;;33.92;8.07;;;;;;;;;;6170242;23;20493;-90
2021/09/04 03:01:24;;;;;;;16.75;7.57;;;;;;;;;;6170116;23;20172;-92
2021/09/04 03:04:29;;;;;;;24.13;8.02;;;;;;;;;;6171260;23;20624;-92
2021/09/04 03:07:36;;;;;;;17.52;7.85;;;;;;;;;;6170162;23;20715;-91
2021/09/04 03:10:42;;;;;;;16.05;7.20;;;;;;;;;;6170363;23;20631;-91
2021/09/04 03:13:47;;;;;;;19.98;7.20;;;;;;;;;;6169633;23;20240;-91
2021/09/04 03:16:56;;;;;;;36.33;8.93;;;;;;;;;;6169531;23;20156;-92
2021/09/04 03:20:01;;;;;;;17.40;7.75;;;;;;;;;;6170524;23;20180;-92
2021/09/04 03:23:09;;;;;;;19.40;8.35;;;;;;;;;;6170351;23;20177;-90
2021/09/04 03:26:14;;;;;;;15.07;7.45;;;;;;;;;;6169880;23;20192;-91
2021/09/04 03:29:20;;;;;;;16.25;7.55;;;;;;;;;;6170184;23;20185;-91
2021/09/04 03:32:30;;;;;;;18.02;7.57;;;;;;;;;;6170427;23;20161;-90
2021/09/04 03:35:35;;;;;;;12.93;6.90;;;;;;;;;;6170144;23;20505;-90
2021/09/04 03:38:40;;;;;;;18.42;8.02;;;;;;;;;;6169089;23;20692;-92
2021/09/04 03:41:46;;;;;;;16.05;7.88;;;;;;;;;;6169357;23;20238;-92
2021/09/04 03:44:52;;;;;;;14.10;7.45;;;;;;;;;;6169757;23;20161;-94
2021/09/04 03:48:00;;;;;;;14.35;6.50;;;;;;;;;;6169376;23;20200;-92
2021/09/04 03:51:06;;;;;;;14.93;7.70;;;;;;;;;;6170682;23;20691;-93
2021/09/04 03:54:12;;;;;;;20.92;7.38;;;;;;;;;;6170965;23;20243;-92
2021/09/04 03:57:16;;;;;;;22.42;8.30;;;;;;;;;;6170522;23;20190;-91
2021/09/04 04:00:22;;;;;;;12.43;6.82;;;;;;;;;;6170618;23;20172;-92
2021/09/04 04:03:33;;;;;;;11.75;6.40;;;;;;;;;;6170460;23;20165;-91
2021/09/04 04:06:38;;;;;;;17.65;6.95;;;;;;;;;;6169301;23;20691;-91
2021/09/04 04:09:45;;;;;;;22.65;7.82;;;;;;;;;;6169495;23;20164;-93
2021/09/04 04:12:51;;;;;;;23.00;7.75;;;;;;;;;;6170607;23;20168;-91
2021/09/04 04:15:56;;;;;;;16.13;7.90;;;;;;;;;;6170426;23;20171;-91
2021/09/04 04:19:03;;;;;;;12.77;7.18;;;;;;;;;;6170089;23;20189;-93
2021/09/04 04:22:09;;;;;;;14.25;7.65;;;;;;;;;;6168715;23;20173;-90
2021/09/04 04:25:14;;;;;;;13.38;7.03;;;;;;;;;;6169943;23;20177;-93
2021/09/04 04:28:19;;;;;;;17.35;7.53;;;;;;;;;;6169812;23;20301;-90
2021/09/04 04:31:24;;;;;;;15.95;7.60;;;;;;;;;;6169455;23;20209;-91
2021/09/04 04:34:31;;;;;;;14.15;7.82;;;;;;;;;;6169363;23;20184;-93
2021/09/04 04:37:36;;;;;;;21.95;8.25;;;;;;;;;;6169423;23;20172;-91
2021/09/04 04:40:41;;;;;;;25.90;8.52;;;;;;;;;;6169398;23;20706;-90
2021/09/04 04:43:48;;;;;;;20.48;8.98;;;;;;;;;;6169623;23;20168;-90
2021/09/04 04:46:54;;;;;;;17.40;8.50;;;;;;;;;;6168997;23;20173;-92
2021/09/04 04:50:06;;;;;;;18.60;7.88;;;;;;;;;;6169129;23;20147;-90
2021/09/04 04:53:12;;;;;;;40.03;8.85;;;;;;;;;;6170021;23;20172;-92
2021/09/04 04:56:17;;;;;;;15.35;8.10;;;;;;;;;;6170548;23;20168;-91
2021/09/04 04:59:23;;;;;;;30.10;7.97;;;;;;;;;;6171269;23;20172;-92
2021/09/04 05:02:29;;;;;;;16.92;8.02;;;;;;;;;;6171378;23;20168;-92
2021/09/04 05:05:37;;;;;;;18.00;7.15;;;;;;;;;;6171738;23;20172;-93
2021/09/04 05:08:42;;;;;;;16.48;7.68;;;;;;;;;;6184486;23;20525;-92
2021/09/04 05:11:47;;;;;;;13.20;7.00;;;;;;;;;;6184215;23;20168;-93
2021/09/04 05:14:52;;;;;;;13.88;7.82;;;;;;;;;;6183682;23;20503;-92
2021/09/04 05:17:58;;;;;;;15.07;7.82;;;;;;;;;;6184125;23;20211;-92
2021/09/04 05:21:04;;;;;;;26.52;7.70;;;;;;;;;;6185483;23;20262;-93
2021/09/04 05:24:11;;;;;;;15.57;7.32;;;;;;;;;;6185490;23;20159;-91
2021/09/04 05:27:17;;;;;;;16.55;7.63;;;;;;;;;;6182996;23;20183;-92
2021/09/04 05:30:23;;;;;;;16.23;7.90;;;;;;;;;;6182927;23;20171;-92
2021/09/04 05:33:29;;;;;;;13.65;7.35;;;;;;;;;;6184801;23;20183;-91
2021/09/04 05:36:36;;;;;;;12.77;7.05;;;;;;;;;;6183717;23;20172;-92
2021/09/04 05:39:41;;;;;;;15.57;7.05;;;;;;;;;;6184459;23;20171;-93
2021/09/04 05:42:46;;;;;;;16.52;6.90;;;;;;;;;;6184258;23;20182;-90
2021/09/04 05:45:52;;;;;;;20.58;6.70;;;;;;;;;;6184924;23;20167;-90
2021/09/04 05:48:57;;;;;;;13.43;6.38;;;;;;;;;;6185126;23;20212;-92
2021/09/04 05:52:08;;;;;;;16.55;6.95;;;;;;;;;;6185222;23;20175;-92
2021/09/04 05:55:13;;;;;;;20.23;6.70;;;;;;;;;;6184121;23;20266;-93
2021/09/04 05:58:18;;;;;;;12.25;6.80;;;;;;;;;;6182991;23;20163;-92
2021/09/04 06:01:24;;;;;;;22.52;6.75;;;;;;;;;;6183331;23;20172;-92
2021/09/04 06:04:30;;;;;;;11.32;6.00;;;;;;;;;;6185204;23;20180;-91
2021/09/04 06:07:37;;;;;;;18.15;6.57;;;;;;;;;;6173413;23;20204;-92
2021/09/04 06:10:42;;;;;;;13.18;6.38;;;;;;;;;;6172912;23;20172;-91
2021/09/04 06:13:47;;;;;;;12.77;6.35;;;;;;;;;;6172010;23;20180;-90
2021/09/04 06:16:52;;;;;;;12.82;6.80;;;;;;;;;;6170487;23;20220;-90
2021/09/04 06:19:57;;;;;;;15.57;6.50;;;;;;;;;;6171230;23;20155;-90
2021/09/04 06:23:05;;;;;;;12.35;6.60;;;;;;;;;;6173867;23;20256;-90
2021/09/04 06:26:11;;;;;;;14.10;7.30;;;;;;;;;;6173939;23;20220;-91
2021/09/04 06:29:16;;;;;;;16.85;7.35;;;;;;;;;;6172850;23;20216;-93
2021/09/04 06:32:22;;;;;;;11.98;7.07;;;;;;;;;;6172599;23;20621;-91
2021/09/04 06:35:29;;;;;;;12.15;6.85;;;;;;;;;;6171599;23;20216;-92
2021/09/04 06:38:35;;;;;;;13.07;7.20;;;;;;;;;;6172390;23;20168;-91
2021/09/04 06:41:41;;;;;;;12.25;6.63;;;;;;;;;;6172749;23;20156;-91
2021/09/04 06:44:46;;;;;;;12.35;6.68;;;;;;;;;;6172975;23;20184;-91
2021/09/04 06:47:52;;;;;;;11.57;6.35;;;;;;;;;;6172012;23;20200;-91
2021/09/04 06:50:56;;;;;;;11.10;6.55;;;;;;;;;;6165875;23;20170;-89
2021/09/04 06:54:05;;;;;;;11.38;6.57;;;;;;;;;;6167316;23;20172;-91
2021/09/04 06:57:11;;;;;;;11.85;6.50;;;;;;;;;;6171413;23;20168;-90
2021/09/04 07:00:17;;;;;;;10.50;6.13;;;;;;;;;;6172318;23;20167;-92
2021/09/04 07:03:22;;;;;;;9.07;5.38;;;;;;;;;;6171801;23;20181;-92
2021/09/04 07:06:28;;;;;;;9.73;6.15;;;;;;;;;;6184513;23;20179;-91
2021/09/04 07:09:34;;;;;;;8.27;4.72;;;;;;;;;;6183072;23;20211;-93
2021/09/04 07:12:44;;;;;;;9.23;5.38;;;;;;;;;;6183818;23;20172;-93
2021/09/04 07:15:49;;;;;;;10.10;5.57;;;;;;;;;;6183008;23;20164;-92
2021/09/04 07:18:54;;;;;;;9.60;5.82;;;;;;;;;;6184244;23;20231;-91
2021/09/04 07:21:59;;;;;;;8.38;5.15;;;;;;;;;;6184616;23;20204;-92
2021/09/04 07:25:09;;;;;;;8.55;5.20;;;;;;;;;;6183114;23;20168;-93
2021/09/04 07:28:14;;;;;;;9.25;5.57;;;;;;;;;;6165610;23;20207;-90
2021/09/04 07:31:19;;;;;;;8.15;4.90;;;;;;;;;;6181764;23;20168;-92
2021/09/04 07:34:25;;;;;;;10.07;4.88;;;;;;;;;;6182353;23;20704;-93
2021/09/04 07:37:30;;;;;;;10.68;5.38;;;;;;;;;;6181832;23;20172;-92
2021/09/04 07:40:37;;;;;;;10.32;5.30;;;;;;;;;;6182086;23;20175;-94
2021/09/04 07:43:42;;;;;;;9.05;5.15;;;;;;;;;;6182345;23;20615;-94
2021/09/04 07:46:48;;;;;;;8.60;4.65;;;;;;;;;;6181616;23;20219;-92
2021/09/04 07:49:56;;;;;;;8.85;5.47;;;;;;;;;;6183578;23;20338;-92
2021/09/04 07:53:02;;;;;;;7.50;4.88;;;;;;;;;;6183920;23;20192;-91
2021/09/04 07:56:09;;;;;;;8.57;5.15;;;;;;;;;;6182004;23;20190;-93
2021/09/04 07:59:14;;;;;;;11.57;5.00;;;;;;;;;;6183115;23;20196;-93
2021/09/04 08:02:19;;;;;;;9.35;4.88;;;;;;;;;;6180846;23;20176;-91
2021/09/04 08:05:33;;;;;;;8.75;5.22;;;;;;;;;;6181019;23;20172;-92
2021/09/04 08:08:40;;;;;;;7.53;5.15;;;;;;;;;;6153058;23;20196;-93
2021/09/04 08:11:47;;;;;;;8.02;5.38;;;;;;;;;;6153806;23;20172;-92
2021/09/04 08:14:52;;;;;;;10.00;5.53;;;;;;;;;;6153750;23;20702;-92
2021/09/04 08:17:57;;;;;;;7.53;4.47;;;;;;;;;;6151929;23;20169;-92
2021/09/04 08:21:02;;;;;;;7.78;4.57;;;;;;;;;;6156529;23;20173;-91
2021/09/04 08:24:07;;;;;;;7.90;4.88;;;;;;;;;;6152653;23;20217;-93
2021/09/04 08:27:14;;;;;;;10.80;4.45;;;;;;;;;;6151280;23;20189;-94
2021/09/04 08:30:19;;;;;;;9.75;4.10;;;;;;;;;;6167772;23;20164;-94
2021/09/04 08:33:25;;;;;;;7.80;4.60;;;;;;;;;;6170515;23;20255;-93
2021/09/04 08:36:30;;;;;;;7.57;5.38;;;;;;;;;;6153782;23;20192;-92
2021/09/04 08:39:35;;;;;;;7.45;4.57;;;;;;;;;;6149435;23;20220;-91
2021/09/04 08:42:42;;;;;;;6.35;4.55;;;;;;;;;;6149946;23;20172;-92
2021/09/04 08:45:47;;;;;;;7.40;4.80;;;;;;;;;;6151211;23;20176;-93
2021/09/04 08:48:53;;;;;;;9.20;5.10;;;;;;;;;;6152255;23;20195;-92
2021/09/04 08:51:58;;;;;;;7.57;4.90;;;;;;;;;;6150564;23;20171;-91
2021/09/04 08:55:04;;;;;;;9.90;4.95;;;;;;;;;;6165596;23;20241;-93
2021/09/04 08:58:10;;;;;;;8.25;4.55;;;;;;;;;;6155795;23;20231;-92
2021/09/04 09:01:16;;;;;;;6.55;4.35;;;;;;;;;;6149413;23;20175;-92
2021/09/04 09:04:24;;;;;;;8.48;4.60;;;;;;;;;;6148876;23;20284;-92
2021/09/04 09:07:41;;;;;;;6.55;4.13;;;;;;;;;;6177363;23;20186;-92
2021/09/04 09:10:48;;;;;;;7.18;4.03;;;;;;;;;;6180067;23;20158;-90
2021/09/04 09:13:55;;;;;;;7.63;4.32;;;;;;;;;;6180485;23;20176;-93
2021/09/04 09:17:01;;;;;;;7.35;4.30;;;;;;;;;;6178772;23;20171;-91
2021/09/04 09:20:08;;;;;;;5.57;3.95;;;;;;;;;;6180619;23;20614;-95
2021/09/04 09:23:14;;;;;;;6.53;3.95;;;;;;;;;;6179941;23;20618;-92
2021/09/04 09:26:19;;;;;;;6.65;3.67;;;;;;;;;;6180746;23;20219;-92
2021/09/04 09:29:30;;;;;;;6.45;3.45;;;;;;;;;;6178541;23;20230;-92
2021/09/04 09:32:35;;;;;;;6.50;4.13;;;;;;;;;;6178874;23;20502;-91
2021/09/04 09:35:42;;;;;;;4.95;3.65;;;;;;;;;;6181966;23;20698;-92
2021/09/04 09:38:47;;;;;;;5.97;4.20;;;;;;;;;;6180184;23;20167;-93
2021/09/04 09:41:55;;;;;;;8.75;4.40;;;;;;;;;;6181320;23;20615;-93
2021/09/04 09:45:01;;;;;;;6.47;3.60;;;;;;;;;;6180015;23;20175;-94
2021/09/04 09:48:07;;;;;;;6.03;3.30;;;;;;;;;;6179810;23;20240;-93
2021/09/04 09:51:14;;;;;;;6.55;3.78;;;;;;;;;;6180174;23;20171;-92
2021/09/04 09:54:19;;;;;;;7.80;4.40;;;;;;;;;;6184206;23;20151;-92
2021/09/04 09:57:25;;;;;;;6.05;3.70;;;;;;;;;;6180969;23;20175;-93
2021/09/04 10:00:32;;;;;;;5.25;3.67;;;;;;;;;;6180938;23;20170;-94
2021/09/04 10:03:37;;;;;;;5.90;4.18;;;;;;;;;;6182525;23;20513;-93
2021/09/04 10:06:43;;;;;;;5.03;3.83;;;;;;;;;;6171639;23;20180;-92
2021/09/04 10:09:50;;;;;;;9.40;4.13;;;;;;;;;;6175905;23;20188;-92
2021/09/04 10:12:55;;;;;;;5.72;3.70;;;;;;;;;;6171897;23;20176;-92
2021/09/04 10:16:02;;;;;;;4.70;3.50;;;;;;;;;;6172123;23;20184;-90
2021/09/04 10:19:07;;;;;;;5.88;3.60;;;;;;;;;;6170984;23;20172;-93
2021/09/04 10:22:12;;;;;;;8.70;3.70;;;;;;;;;;6167439;23;20164;-91
2021/09/04 10:25:18;;;;;;;6.97;3.00;;;;;;;;;;6168576;23;20203;-93
2021/09/04 10:28:23;;;;;;;6.95;3.80;;;;;;;;;;6168414;23;20683;-93
2021/09/04 10:31:58;;;;;;;6.60;3.45;;;;;;;;;;6166977;23;20245;-93
2021/09/04 10:35:06;;;;;;;5.35;3.55;;;;;;;;;;6167802;23;20172;-91
2021/09/04 10:38:24;;;;;;;6.20;3.85;;;;;;;;;;6167335;23;20198;-93
2021/09/04 10:41:35;;;;;;;5.68;3.30;;;;;;;;;;6166214;23;20211;-91
2021/09/04 10:44:42;;;;;;;4.90;3.60;;;;;;;;;;6167411;23;20172;-90
2021/09/04 10:51:11;;;;;;;6.55;3.95;;;;;;;;;;6169627;23;20187;-92
2021/09/04 10:54:37;;;;;;;7.07;3.80;;;;;;;;;;6167888;23;20232;-92
2021/09/04 10:57:46;;;;;;;6.28;3.50;;;;;;;;;;6153329;23;20543;-94
2021/09/04 11:00:52;;;;;;;6.13;3.20;;;;;;;;;;6166980;23;20176;-92
2021/09/04 11:03:58;;;;;;;6.10;3.53;;;;;;;;;;6166996;23;20288;-93
2021/09/04 11:07:09;;;;;;;6.63;3.88;;;;;;;;;;6166924;23;20191;-93
2021/09/04 11:10:23;;;;;;;6.82;4.00;;;;;;;;;;6167475;23;20251;-92
2021/09/04 11:13:36;;;;;;;9.00;4.50;;;;;;;;;;6166062;23;20168;-92
2021/09/04 11:16:48;;;;;;;12.07;3.83;;;;;;;;;;6167920;23;20505;-93
2021/09/04 11:19:54;;;;;;;10.70;4.30;;;;;;;;;;6166896;23;20175;-91
2021/09/04 11:23:01;;;;;;;4.75;3.38;;;;;;;;;;6168319;23;20192;-92
2021/09/04 11:26:06;;;;;;;5.60;4.05;;;;;;;;;;6168565;23;20171;-92
2021/09/04 11:29:11;;;;;;;7.53;4.00;;;;;;;;;;6168340;23;20200;-90
2021/09/04 11:32:21;;;;;;;5.75;4.15;;;;;;;;;;6168310;23;20171;-93
2021/09/04 11:35:26;;;;;;;6.13;3.60;;;;;;;;;;6151620;23;20236;-93
2021/09/04 11:38:33;;;;;;;11.02;4.15;;;;;;;;;;6165891;23;20179;-91
2021/09/04 11:41:44;;;;;;;7.03;3.65;;;;;;;;;;6167622;23;20147;-93
2021/09/04 11:44:51;;;;;;;8.43;3.72;;;;;;;;;;6168041;23;20223;-91
2021/09/04 11:47:57;;;;;;;7.50;3.55;;;;;;;;;;6166434;23;20171;-91
2021/09/04 11:51:05;;;;;;;5.65;3.83;;;;;;;;;;6167866;23;20687;-90
2021/09/04 11:54:12;;;;;;;6.97;4.20;;;;;;;;;;6167394;23;20172;-92
2021/09/04 11:57:27;;;;;;;6.78;3.65;;;;;;;;;;6168190;23;20168;-92
2021/09/04 12:00:33;;;;;;;5.10;3.53;;;;;;;;;;6170453;23;20196;-90
2021/09/04 12:03:38;;;;;;;6.78;3.80;;;;;;;;;;6168409;23;20192;-94
2021/09/04 12:06:47;;;;;;;6.05;3.60;;;;;;;;;;6168412;23;20190;-92
2021/09/04 12:09:55;;;;;;;6.43;3.70;;;;;;;;;;6167706;23;20198;-90
2021/09/04 12:13:00;;;;;;;8.13;4.10;;;;;;;;;;6168224;23;20212;-94
2021/09/04 12:16:08;;;;;;;7.68;3.80;;;;;;;;;;6169011;23;20175;-92
2021/09/04 12:19:18;;;;;;;6.80;4.22;;;;;;;;;;6168749;23;20171;-94
2021/09/04 12:22:34;;;;;;;7.00;3.83;;;;;;;;;;6169042;23;20396;-92
2021/09/04 12:25:40;;;;;;;5.75;3.88;;;;;;;;;;6168514;23;20289;-92
2021/09/04 12:28:46;;;;;;;6.28;3.50;;;;;;;;;;6169669;23;20204;-94
2021/09/04 12:31:51;;;;;;;5.38;4.10;;;;;;;;;;6166830;23;20180;-92
2021/09/04 12:34:59;;;;;;;11.82;5.28;;;;;;;;;;6169356;23;20160;-92
2021/09/04 12:38:07;;;;;;;5.45;3.53;;;;;;;;;;6167184;23;20187;-91
2021/09/04 12:41:17;;;;;;;6.05;3.20;;;;;;;;;;6170415;23;20222;-93
2021/09/04 12:44:22;;;;;;;7.18;3.80;;;;;;;;;;6171770;23;20175;-91
2021/09/04 12:47:40;;;;;;;8.00;3.47;;;;;;;;;;6168050;23;20175;-92
2021/09/04 12:50:46;;;;;;;6.70;3.50;;;;;;;;;;6167899;23;20204;-92
2021/09/04 12:54:01;;;;;;;6.20;3.75;;;;;;;;;;6167830;23;20172;-92
2021/09/04 12:57:23;;;;;;;5.93;3.65;;;;;;;;;;6166601;23;20156;-93
2021/09/04 13:00:29;;;;;;;7.32;3.45;;;;;;;;;;6167767;23;20188;-96
2021/09/04 13:03:35;;;;;;;5.78;3.80;;;;;;;;;;6168411;23;20509;-92
2021/09/04 13:06:40;;;;;;;5.72;4.00;;;;;;;;;;6168249;23;20187;-92
2021/09/04 13:09:46;;;;;;;4.30;3.38;;;;;;;;;;6168732;23;20315;-93
2021/09/04 13:12:53;;;;;;;5.25;3.42;;;;;;;;;;6151889;23;20176;-92
2021/09/04 13:15:59;;;;;;;4.82;3.28;;;;;;;;;;6169909;23;20163;-92
2021/09/04 13:19:04;;;;;;;4.82;3.42;;;;;;;;;;6169968;23;20172;-92
2021/09/04 13:22:09;;;;;;;7.45;3.40;;;;;;;;;;6170638;23;20175;-90
2021/09/04 13:25:16;;;;;;;5.55;3.22;;;;;;;;;;6170145;23;20168;-90
2021/09/04 13:28:22;;;;;;;6.50;3.00;;;;;;;;;;6169814;23;20175;-92
2021/09/04 13:31:27;;;;;;;5.88;2.92;;;;;;;;;;6169933;23;20195;-92
2021/09/04 13:34:32;;;;;;;4.22;3.10;;;;;;;;;;6167586;23;20175;-91
2021/09/04 13:37:37;;;;;;;7.40;3.60;;;;;;;;;;6174443;23;20179;-93
2021/09/04 13:40:43;;;;;;;6.25;3.55;;;;;;;;;;6171059;23;20159;-90
2021/09/04 13:43:49;;;;;;;4.40;2.90;;;;;;;;;;6170010;23;20172;-92
2021/09/04 13:46:54;;;;;;;5.00;3.30;;;;;;;;;;6168349;23;20172;-90
2021/09/04 13:49:59;;;;;;;7.07;3.67;;;;;;;;;;6168291;23;20184;-90
2021/09/04 13:53:04;;;;;;;9.90;6.45;;;;;;;;;;6167615;23;20187;-91
2021/09/04 13:56:10;;;;;;;8.73;3.97;;;;;;;;;;6168821;23;20167;-93
2021/09/04 13:59:16;;;;;;;4.50;3.33;;;;;;;;;;6169011;23;20511;-91
2021/09/04 14:02:23;;;;;;;10.45;6.70;;;;;;;;;;6169044;23;20171;-90
2021/09/04 14:05:28;;;;;;;5.22;3.50;;;;;;;;;;6167287;23;20172;-90
2021/09/04 14:08:33;;;;;;;7.45;3.17;;;;;;;;;;6177950;23;20207;-89
2021/09/04 14:11:38;;;;;;;9.13;3.83;;;;;;;;;;6180336;23;20268;-88
2021/09/04 14:14:44;;;;;;;6.22;3.22;;;;;;;;;;6183240;23;20817;-90
2021/09/04 14:17:51;;;;;;;5.82;3.60;;;;;;;;;;6185501;23;20175;-87
2021/09/04 14:20:57;;;;;;;5.15;3.30;;;;;;;;;;6179830;23;20167;-90
2021/09/04 14:24:02;;;;;;;6.82;3.72;;;;;;;;;;6179587;23;20176;-90
2021/09/04 14:27:07;;;;;;;4.47;3.30;;;;;;;;;;6179410;23;20163;-91
2021/09/04 14:30:14;;;;;;;10.10;3.95;;;;;;;;;;6180131;23;20556;-90
2021/09/04 14:33:19;;;;;;;5.95;3.47;;;;;;;;;;6181854;23;20299;-90
2021/09/04 14:36:24;;;;;;;8.18;3.50;;;;;;;;;;6181164;23;20226;-90
2021/09/04 14:39:29;;;;;;;7.25;3.65;;;;;;;;;;6179373;23;20170;-91
2021/09/04 14:42:34;;;;;;;5.20;3.55;;;;;;;;;;6179971;23;20295;-89
2021/09/04 14:45:42;;;;;;;10.07;3.67;;;;;;;;;;6184392;23;20187;-91
2021/09/04 14:48:48;;;;;;;6.00;3.53;;;;;;;;;;6185201;23;20542;-90
2021/09/04 14:51:53;;;;;;;7.10;3.85;;;;;;;;;;6188083;23;20194;-91
2021/09/04 14:54:59;;;;;;;6.05;3.75;;;;;;;;;;6185941;23;20217;-90
2021/09/04 14:58:05;;;;;;;5.00;3.13;;;;;;;;;;6184991;23;20179;-91
2021/09/04 15:01:13;;;;;;;5.60;3.33;;;;;;;;;;6186723;23;20171;-89
2021/09/04 15:04:19;;;;;;;9.30;3.28;;;;;;;;;;6187207;23;20175;-91
2021/09/04 15:07:24;;;;;;;6.63;3.58;;;;;;;;;;6186595;23;20210;-91
2021/09/04 15:10:34;;;;;;;9.38;3.60;;;;;;;;;;6187437;23;20195;-92
2021/09/04 15:13:39;;;;;;;8.68;3.00;;;;;;;;;;6186484;23;20172;-92
2021/09/04 15:16:52;;;;;;;6.15;3.33;;;;;;;;;;6186090;23;20155;-90
2021/09/04 15:19:59;;;;;;;4.43;3.00;;;;;;;;;;6186993;23;20175;-92
2021/09/04 15:23:05;;;;;;;5.90;3.33;;;;;;;;;;6187313;23;20227;-91
2021/09/04 15:26:12;;;;;;;5.38;3.13;;;;;;;;;;6186272;23;20174;-91
2021/09/04 15:29:20;;;;;;;5.25;3.08;;;;;;;;;;6186550;23;20171;-92
2021/09/04 15:32:27;;;;;;;7.57;3.58;;;;;;;;;;6187406;23;20156;-91
2021/09/04 15:35:38;;;;;;;6.25;3.70;;;;;;;;;;6202002;23;20395;-93
2021/09/04 15:38:44;;;;;;;6.72;3.65;;;;;;;;;;6186366;23;20610;-90
2021/09/04 15:41:51;;;;;;;7.32;3.50;;;;;;;;;;6187675;23;20810;-91
2021/09/04 15:44:58;;;;;;;4.97;3.03;;;;;;;;;;6185955;23;20175;-90
2021/09/04 15:48:08;;;;;;;5.72;3.47;;;;;;;;;;6186522;23;20164;-93
2021/09/04 15:51:14;;;;;;;5.60;3.15;;;;;;;;;;6185398;23;20195;-91
2021/09/04 15:54:21;;;;;;;4.78;3.25;;;;;;;;;;6186537;23;20192;-91
2021/09/04 15:57:28;;;;;;;4.70;3.50;;;;;;;;;;6186596;23;20168;-89
2021/09/04 16:00:37;;;;;;;6.03;3.83;;;;;;;;;;6186854;23;20168;-91
2021/09/04 16:03:45;;;;;;;6.75;3.30;;;;;;;;;;6185528;23;20168;-92
2021/09/04 16:06:50;;;;;;;6.55;3.25;;;;;;;;;;6184797;23;20191;-92
2021/09/04 16:09:56;;;;;;;7.70;3.40;;;;;;;;;;6184796;23;20641;-90
2021/09/04 16:13:02;;;;;;;6.45;3.50;;;;;;;;;;6185004;23;20168;-91
2021/09/04 16:16:08;;;;;;;5.80;3.67;;;;;;;;;;6185553;23;20224;-90
2021/09/04 16:19:17;;;;;;;8.88;3.33;;;;;;;;;;6203262;23;20151;-90
2021/09/04 16:22:22;;;;;;;5.95;3.30;;;;;;;;;;6183436;23;20171;-93
2021/09/04 16:25:27;;;;;;;6.05;3.45;;;;;;;;;;6183731;23;20243;-91
2021/09/04 16:28:33;;;;;;;8.50;4.28;;;;;;;;;;6184742;23;20242;-91
2021/09/04 16:31:38;;;;;;;8.57;3.83;;;;;;;;;;6183607;23;20242;-89
2021/09/04 16:34:45;;;;;;;5.05;3.25;;;;;;;;;;6184188;23;20171;-90
2021/09/04 16:37:50;;;;;;;5.45;3.47;;;;;;;;;;6182555;23;20187;-90
2021/09/04 16:40:56;;;;;;;6.78;3.90;;;;;;;;;;6183649;23;20182;-92
2021/09/04 16:44:01;;;;;;;11.07;3.70;;;;;;;;;;6182211;23;20167;-93
2021/09/04 16:47:06;;;;;;;8.10;3.92;;;;;;;;;;6184095;23;20179;-91
2021/09/04 16:50:26;;;;;;;9.73;3.60;;;;;;;;;;6186986;23;20206;-91
2021/09/04 16:53:31;;;;;;;11.85;4.63;;;;;;;;;;6186548;23;20235;-91
2021/09/04 16:56:44;;;;;;;7.43;3.90;;;;;;;;;;6187032;23;20171;-91
2021/09/04 16:59:49;;;;;;;6.50;4.03;;;;;;;;;;6185835;23;20243;-91
2021/09/04 17:02:54;;;;;;;9.90;4.20;;;;;;;;;;6184616;23;20663;-92
2021/09/04 17:06:01;;;;;;;7.75;4.38;;;;;;;;;;6183578;23;20191;-91
2021/09/04 17:09:07;;;;;;;9.75;4.28;;;;;;;;;;6184540;23;20221;-90
2021/09/04 17:12:15;;;;;;;8.05;4.72;;;;;;;;;;6184064;23;20251;-91
2021/09/04 17:15:20;;;;;;;11.20;4.80;;;;;;;;;;6183665;23;20643;-93
2021/09/04 17:18:27;;;;;;;6.40;4.20;;;;;;;;;;6184573;23;20168;-91
2021/09/04 17:21:33;;;;;;;8.90;4.65;;;;;;;;;;6184390;23;20170;-92
2021/09/04 17:24:39;;;;;;;8.82;4.70;;;;;;;;;;6183802;23;20256;-92
2021/09/04 17:27:44;;;;;;;11.20;4.60;;;;;;;;;;6184827;23;20171;-91
2021/09/04 17:30:49;;;;;;;10.95;5.45;;;;;;;;;;6184882;23;20192;-92
2021/09/04 17:33:54;;;;;;;9.77;5.80;;;;;;;;;;6184992;23;20203;-91
2021/09/04 17:37:01;;;;;;;9.25;5.05;;;;;;;;;;6184205;23;20175;-90
2021/09/04 17:40:07;;;;;;;8.55;4.47;;;;;;;;;;6183969;23;20152;-89
2021/09/04 17:43:13;;;;;;;11.43;4.57;;;;;;;;;;6185040;23;20167;-92
2021/09/04 17:46:18;;;;;;;9.43;4.90;;;;;;;;;;6185278;23;20627;-92
2021/09/04 17:49:24;;;;;;;9.93;4.45;;;;;;;;;;6186875;23;20306;-91
2021/09/04 17:52:30;;;;;;;8.20;4.60;;;;;;;;;;6186448;23;20216;-91
2021/09/04 17:55:36;;;;;;;9.75;4.97;;;;;;;;;;6183464;23;20215;-91
2021/09/04 17:58:41;;;;;;;9.88;4.45;;;;;;;;;;6184939;23;20187;-89
2021/09/04 18:01:46;;;;;;;9.68;4.97;;;;;;;;;;6184497;23;20187;-90
2021/09/04 18:04:52;;;;;;;8.50;4.43;;;;;;;;;;6183828;23;20176;-91
2021/09/04 18:07:59;;;;;;;10.65;4.90;;;;;;;;;;6170614;23;20293;-91
2021/09/04 18:11:04;;;;;;;10.57;4.68;;;;;;;;;;6171658;23;20357;-90
2021/09/04 18:14:10;;;;;;;7.95;4.85;;;;;;;;;;6173069;23;20217;-93
2021/09/04 18:17:16;;;;;;;13.52;6.03;;;;;;;;;;6170135;23;20175;-91
2021/09/04 18:20:21;;;;;;;12.68;6.47;;;;;;;;;;6169472;23;20220;-93
2021/09/04 18:23:28;;;;;;;14.68;6.07;;;;;;;;;;6169286;23;20152;-91
2021/09/04 18:26:33;;;;;;;16.73;8.07;;;;;;;;;;6171033;23;20176;-91
2021/09/04 18:29:40;;;;;;;15.52;6.93;;;;;;;;;;6172913;23;20237;-92
2021/09/04 18:32:51;;;;;;;13.48;5.30;;;;;;;;;;6175108;23;20225;-91